Terminal Aerodrome Forecast
Issued by NWS Milwaukee/Sullivan, WI

Home | Current Version | Previous Version | Text Only | Print | Product List | Glossary On
Versions: 1 2 3 4 5 6 7 8 9 10 11 12 13 14 15 16 17 18 19 20 21 22 23 24 25 26 27 28 29 30 31 32 33 34 35 36 37 38 39 40 41 42 43 44 45 46 47 48 49 50
000
FTUS43 KMKX 210159 AAC
TAFMKE
TAF AMD
KMKE 210159Z 2102/2206 21008KT P6SM SCT050 BKN070
      TEMPO 2102/2103 5SM -TSRA SCT035 BKN050CB
     FM210700 28009KT P6SM -SHRA BKN050
     FM211000 28011KT P6SM BKN050
     FM211200 31011G19KT P6SM OVC050
      TEMPO 2113/2114 BKN015
     FM211400 33013G22KT P6SM OVC015
     FM212000 35015G22KT P6SM SCT040
     FM212300 36011KT P6SM SCT200=

USA.gov is the U.S. government's official web portal to all federal, state and local government web resources and services.